Time;durP1;ratioP1;P1;durP2;ratioP2;P2;SDS_P1;SDS_P2;PMS_P1;PMS_P2;Temp;Humidity;BMP_temperature;BMP_pressure;BME280_temperature;BME280_humidity;BME280_pressure;Samples;Min_cycle;Max_cycle;Signal;HPM_P1;HPM_P2
2023/08/24 00:01:54;;;;;;;6.13;1.98;;;19.60;99.90;;;;;;5077909;28;20068;-82
2023/08/24 00:04:20;;;;;;;8.10;2.17;;;19.50;99.90;;;;;;5062883;28;20036;-83
2023/08/24 00:06:48;;;;;;;5.40;2.17;;;19.40;99.90;;;;;;5068855;28;20048;-81
2023/08/24 00:09:15;;;;;;;7.93;2.63;;;19.40;99.90;;;;;;5072012;28;20052;-81
2023/08/24 00:11:42;;;;;;;7.20;2.45;;;19.30;99.90;;;;;;5055830;28;20460;-83
2023/08/24 00:14:09;;;;;;;5.82;2.42;;;19.20;99.90;;;;;;5045170;28;20040;-82
2023/08/24 00:16:36;;;;;;;6.63;2.33;;;19.20;99.90;;;;;;5063561;28;20126;-82
2023/08/24 00:19:03;;;;;;;7.43;2.25;;;19.10;99.90;;;;;;5056238;28;20036;-83
2023/08/24 00:21:30;;;;;;;13.95;3.55;;;19.10;99.90;;;;;;5054554;28;20462;-81
2023/08/24 00:23:57;;;;;;;6.13;2.25;;;19.00;99.90;;;;;;5068508;28;20363;-83
2023/08/24 00:26:23;;;;;;;6.28;2.20;;;19.00;99.90;;;;;;5026199;28;20049;-83
2023/08/24 00:28:50;;;;;;;5.25;2.03;;;18.90;99.90;;;;;;5040616;28;20072;-82
2023/08/24 00:31:19;;;;;;;6.68;2.40;;;18.90;99.90;;;;;;5047430;28;20053;-83
2023/08/24 00:33:47;;;;;;;7.45;2.22;;;18.80;99.90;;;;;;5056744;28;20036;-81
2023/08/24 00:36:14;;;;;;;6.05;2.30;;;18.80;99.90;;;;;;5057330;28;20447;-82
2023/08/24 00:38:43;;;;;;;6.10;2.35;;;18.80;99.90;;;;;;5043573;28;20045;-83
2023/08/24 00:41:09;;;;;;;7.72;2.45;;;18.70;99.90;;;;;;5077141;28;20077;-82
2023/08/24 00:43:38;;;;;;;7.22;2.30;;;18.70;99.90;;;;;;5078025;28;20032;-80
2023/08/24 00:46:04;;;;;;;7.10;2.20;;;18.60;99.90;;;;;;5062551;28;20579;-81
2023/08/24 00:48:32;;;;;;;8.05;2.42;;;18.60;99.90;;;;;;5049591;28;20048;-81
2023/08/24 00:50:59;;;;;;;6.57;2.47;;;18.60;99.90;;;;;;5051973;28;20041;-81
2023/08/24 00:53:26;;;;;;;7.45;2.38;;;18.60;99.90;;;;;;5063600;28;20051;-82
2023/08/24 00:55:53;;;;;;;7.60;2.30;;;18.40;99.90;;;;;;5041408;28;20045;-80
2023/08/24 00:58:21;;;;;;;8.07;2.75;;;18.40;99.90;;;;;;5055014;28;20040;-81
2023/08/24 01:00:47;;;;;;;9.90;2.67;;;18.30;99.90;;;;;;5053890;28;20460;-80
2023/08/24 01:03:14;;;;;;;5.43;2.28;;;18.20;99.90;;;;;;5037410;28;20047;-79
2023/08/24 01:05:42;;;;;;;6.80;2.20;;;18.10;99.90;;;;;;5033564;28;20144;-81
2023/08/24 01:08:10;;;;;;;4.20;1.70;;;18.10;99.90;;;;;;5054619;28;20129;-82
2023/08/24 01:10:37;;;;;;;7.28;2.70;;;18.00;99.90;;;;;;5048553;28;20063;-81
2023/08/24 01:13:05;;;;;;;6.47;2.50;;;18.00;99.90;;;;;;5055663;28;20040;-82
2023/08/24 01:15:33;;;;;;;5.43;1.95;;;18.00;99.90;;;;;;5030649;28;20041;-82
2023/08/24 01:18:02;;;;;;;10.77;2.45;;;18.00;99.90;;;;;;5045417;28;20044;-82
2023/08/24 01:20:28;;;;;;;6.57;2.50;;;17.90;99.90;;;;;;5044447;28;20123;-80
2023/08/24 01:22:55;;;;;;;6.65;2.35;;;17.80;99.90;;;;;;5056293;28;20132;-80
2023/08/24 01:25:23;;;;;;;6.35;2.55;;;17.90;99.90;;;;;;5037049;28;20045;-80
2023/08/24 01:30:19;;;;;;;5.82;2.25;;;17.70;99.90;;;;;;5038767;28;20451;-79
2023/08/24 01:32:46;;;;;;;6.03;2.05;;;17.70;99.90;;;;;;5066171;28;20115;-80
2023/08/24 01:35:13;;;;;;;8.90;2.05;;;17.70;99.90;;;;;;5036605;28;20059;-80
2023/08/24 01:37:40;;;;;;;8.15;2.25;;;17.70;99.90;;;;;;5054306;28;20045;-82
2023/08/24 01:40:12;;;;;;;7.82;2.40;;;17.60;99.90;;;;;;5035901;28;20429;-82
2023/08/24 01:42:38;;;;;;;10.88;2.38;;;17.60;99.90;;;;;;5054162;28;20079;-83
2023/08/24 01:45:07;;;;;;;5.45;1.95;;;17.60;99.90;;;;;;5036746;28;20106;-82
2023/08/24 01:47:33;;;;;;;14.73;2.55;;;17.50;99.90;;;;;;5049665;28;20033;-80
2023/08/24 01:50:00;;;;;;;5.85;2.38;;;17.40;99.90;;;;;;5064135;28;20052;-82
2023/08/24 01:52:27;;;;;;;8.70;2.70;;;17.30;99.90;;;;;;5056707;28;20045;-83
2023/08/24 01:54:54;;;;;;;7.95;2.22;;;17.30;99.90;;;;;;5073779;28;20094;-82
2023/08/24 01:57:21;;;;;;;8.30;2.55;;;17.30;99.90;;;;;;5040022;28;20087;-82
2023/08/24 01:59:50;;;;;;;8.43;2.25;;;17.30;99.90;;;;;;5055692;28;20523;-82
2023/08/24 02:02:17;;;;;;;8.15;2.35;;;17.20;99.90;;;;;;5056512;28;20055;-81
2023/08/24 02:04:46;;;;;;;5.95;2.30;;;17.20;99.90;;;;;;5038124;28;20053;-80
2023/08/24 02:07:12;;;;;;;6.10;2.10;;;17.20;99.90;;;;;;5064416;28;20467;-83
2023/08/24 02:09:39;;;;;;;7.30;2.22;;;17.20;99.90;;;;;;5052959;28;20058;-83
2023/08/24 02:12:06;;;;;;;6.10;1.88;;;17.20;99.90;;;;;;5020653;28;20053;-82
2023/08/24 02:14:33;;;;;;;6.80;2.53;;;17.20;99.90;;;;;;5036031;28;20065;-83
2023/08/24 02:16:59;;;;;;;6.07;2.45;;;17.30;99.90;;;;;;5044030;28;20095;-84
2023/08/24 02:19:26;;;;;;;6.70;2.15;;;17.30;99.90;;;;;;5073742;28;20067;-83
2023/08/24 02:21:53;;;;;;;7.20;2.60;;;17.30;99.90;;;;;;5056532;28;20071;-82
2023/08/24 02:24:21;;;;;;;5.22;1.95;;;17.30;99.90;;;;;;5036863;28;20049;-80
2023/08/24 02:26:48;;;;;;;12.10;2.50;;;17.30;99.90;;;;;;5075004;28;20467;-81
2023/08/24 02:29:15;;;;;;;7.82;2.72;;;17.30;99.90;;;;;;5053107;28;20156;-82
2023/08/24 02:31:42;;;;;;;6.40;2.75;;;17.20;99.90;;;;;;5040156;28;20040;-80
2023/08/24 02:34:09;;;;;;;8.93;2.80;;;17.20;99.90;;;;;;5070455;28;20533;-83
2023/08/24 02:36:37;;;;;;;6.97;2.40;;;17.20;99.90;;;;;;5068352;28;20471;-80
2023/08/24 02:39:05;;;;;;;6.72;2.53;;;17.20;99.90;;;;;;5059879;28;20059;-83
2023/08/24 02:41:31;;;;;;;8.02;2.60;;;17.20;99.90;;;;;;5058860;28;20419;-81
2023/08/24 02:43:58;;;;;;;5.75;2.25;;;17.30;99.90;;;;;;5075238;28;20125;-82
2023/08/24 02:46:25;;;;;;;7.38;3.03;;;17.30;99.90;;;;;;5047170;28;20040;-81
2023/08/24 02:48:51;;;;;;;6.22;2.50;;;17.30;99.90;;;;;;5061982;28;20046;-83
2023/08/24 02:51:18;;;;;;;7.63;2.33;;;17.30;99.90;;;;;;5053392;28;20537;-81
2023/08/24 02:53:45;;;;;;;6.03;2.55;;;17.20;99.90;;;;;;5051366;28;20044;-84
2023/08/24 02:56:11;;;;;;;7.07;2.60;;;17.20;99.90;;;;;;5073324;28;20119;-83
2023/08/24 02:58:38;;;;;;;12.80;2.65;;;17.30;99.90;;;;;;5048986;28;20056;-84
2023/08/24 03:01:07;;;;;;;9.13;3.25;;;17.30;99.90;;;;;;5058297;28;20447;-82
2023/08/24 03:03:34;;;;;;;10.88;3.22;;;17.40;99.90;;;;;;5055926;28;20040;-82
2023/08/24 03:06:01;;;;;;;7.60;2.80;;;17.40;99.90;;;;;;5053119;28;20467;-82
2023/08/24 03:08:28;;;;;;;9.30;2.97;;;17.50;99.90;;;;;;5053891;28;20051;-79
2023/08/24 03:10:55;;;;;;;10.68;3.38;;;17.50;99.90;;;;;;5045427;28;20071;-83
2023/08/24 03:13:22;;;;;;;14.73;3.47;;;17.50;99.90;;;;;;5072078;28;20048;-82
2023/08/24 03:15:49;;;;;;;7.72;3.40;;;17.50;99.90;;;;;;5054336;28;20059;-82
2023/08/24 03:18:16;;;;;;;10.48;3.70;;;17.60;99.90;;;;;;5092448;28;20130;-82
2023/08/24 03:20:43;;;;;;;8.88;3.22;;;17.60;99.90;;;;;;5047552;28;20041;-82
2023/08/24 03:23:10;;;;;;;9.88;3.22;;;17.70;99.90;;;;;;5041393;28;20036;-83
2023/08/24 03:25:37;;;;;;;8.75;2.97;;;17.70;99.90;;;;;;5084899;28;20085;-82
2023/08/24 03:28:05;;;;;;;10.95;3.17;;;17.60;99.90;;;;;;5048451;28;20099;-83
2023/08/24 03:30:32;;;;;;;7.93;3.05;;;17.70;99.90;;;;;;5084611;28;20045;-79
2023/08/24 03:32:59;;;;;;;8.90;2.97;;;17.80;99.90;;;;;;5057043;28;20054;-82
2023/08/24 03:35:26;;;;;;;11.23;3.22;;;17.90;99.90;;;;;;5078057;28;20135;-80
2023/08/24 03:37:54;;;;;;;9.23;3.15;;;18.00;99.90;;;;;;5088770;28;20098;-79
2023/08/24 03:40:21;;;;;;;7.82;2.80;;;18.10;99.90;;;;;;5043843;28;20044;-80
2023/08/24 03:42:48;;;;;;;9.52;2.80;;;18.00;99.90;;;;;;5048341;28;20048;-79
2023/08/24 03:45:14;;;;;;;6.93;2.60;;;18.00;99.90;;;;;;5078229;28;20432;-79
2023/08/24 03:47:41;;;;;;;6.05;2.45;;;17.90;99.90;;;;;;5077177;28;20048;-80
2023/08/24 03:50:08;;;;;;;7.63;2.83;;;17.80;99.90;;;;;;5077000;28;20801;-83
2023/08/24 03:52:35;;;;;;;11.10;3.30;;;17.70;99.90;;;;;;5091892;28;20076;-81
2023/08/24 03:55:02;;;;;;;7.20;2.92;;;17.70;99.90;;;;;;5095059;28;20508;-81
2023/08/24 03:57:28;;;;;;;7.40;2.60;;;17.70;99.90;;;;;;5080348;28;20044;-83
2023/08/24 03:59:55;;;;;;;6.70;2.80;;;17.70;99.90;;;;;;5094367;28;20040;-82
2023/08/24 04:02:22;;;;;;;9.55;3.28;;;17.70;99.90;;;;;;5081121;28;20127;-82
2023/08/24 04:04:49;;;;;;;8.30;2.95;;;17.70;99.90;;;;;;5072102;28;20467;-80
2023/08/24 04:07:17;;;;;;;7.82;3.00;;;17.70;99.90;;;;;;5073783;28;20142;-82
2023/08/24 04:09:47;;;;;;;6.37;2.77;;;17.70;99.90;;;;;;5079329;28;20410;-80
2023/08/24 04:12:13;;;;;;;8.32;2.90;;;17.80;99.90;;;;;;5094821;28;20150;-81
2023/08/24 04:14:40;;;;;;;13.02;3.28;;;17.80;99.90;;;;;;5093677;28;20129;-80
2023/08/24 04:17:08;;;;;;;9.80;3.55;;;17.80;99.90;;;;;;5094358;28;20471;-81
2023/08/24 04:19:34;;;;;;;10.20;2.88;;;17.80;99.90;;;;;;5093691;28;20036;-83
2023/08/24 04:22:02;;;;;;;10.75;2.90;;;17.80;99.90;;;;;;5057733;28;20041;-80
2023/08/24 04:24:29;;;;;;;9.32;3.17;;;17.90;99.90;;;;;;5074697;28;20033;-81
2023/08/24 04:26:56;;;;;;;9.80;2.70;;;17.90;99.90;;;;;;5094055;28;20115;-83
2023/08/24 04:29:23;;;;;;;10.32;3.00;;;17.90;99.90;;;;;;5095232;28;20047;-83
2023/08/24 04:31:49;;;;;;;8.38;3.00;;;17.90;99.90;;;;;;5084717;28;20045;-83
2023/08/24 04:34:16;;;;;;;8.05;2.78;;;17.90;99.90;;;;;;5079649;28;20036;-79
2023/08/24 04:36:43;;;;;;;10.00;2.40;;;17.90;99.90;;;;;;5093975;28;20378;-81
2023/08/24 04:39:10;;;;;;;8.70;3.17;;;18.00;99.90;;;;;;5081469;28;20032;-83
2023/08/24 04:41:37;;;;;;;7.45;3.00;;;18.00;99.90;;;;;;5093624;28;20136;-81
2023/08/24 04:44:03;;;;;;;10.15;3.25;;;18.00;99.90;;;;;;5094917;28;20070;-83
2023/08/24 04:46:30;;;;;;;7.50;2.88;;;18.10;99.90;;;;;;5093420;28;20047;-80
2023/08/24 04:48:57;;;;;;;11.68;3.40;;;18.10;99.90;;;;;;5093575;28;20382;-80
2023/08/24 04:51:24;;;;;;;10.88;3.15;;;18.10;99.90;;;;;;5070622;28;20114;-81
2023/08/24 04:53:51;;;;;;;9.98;3.03;;;18.20;99.90;;;;;;5039237;28;20430;-83
2023/08/24 04:56:19;;;;;;;10.13;3.13;;;18.20;99.90;;;;;;5076368;28;20028;-82
2023/08/24 04:58:47;;;;;;;13.43;3.03;;;18.20;99.90;;;;;;5077492;28;20093;-81
2023/08/24 05:01:14;;;;;;;14.05;3.33;;;18.10;99.90;;;;;;5072232;28;20215;-80
2023/08/24 05:03:41;;;;;;;6.85;3.00;;;18.10;99.90;;;;;;5067209;28;20101;-81
2023/08/24 05:06:08;;;;;;;7.28;2.88;;;18.10;99.90;;;;;;5089403;28;20118;-83
2023/08/24 05:08:35;;;;;;;9.05;3.53;;;18.10;99.90;;;;;;5037560;28;20053;-80
2023/08/24 05:11:03;;;;;;;8.48;3.00;;;18.20;99.90;;;;;;5065248;28;20040;-79
2023/08/24 05:13:29;;;;;;;8.43;3.05;;;18.20;99.90;;;;;;5053774;28;20041;-80
2023/08/24 05:15:56;;;;;;;9.23;3.28;;;18.20;99.90;;;;;;5054105;28;20083;-79
2023/08/24 05:21:08;;;;;;;7.05;2.95;;;18.00;99.90;;;;;;5081620;28;20079;-79
2023/08/24 05:23:35;;;;;;;13.48;3.20;;;18.00;99.90;;;;;;5067108;28;20060;-80
2023/08/24 05:26:02;;;;;;;8.18;3.42;;;18.00;99.90;;;;;;5076770;28;20040;-81
2023/08/24 05:28:29;;;;;;;10.02;3.17;;;17.90;99.90;;;;;;5061852;28;20044;-81
2023/08/24 05:30:55;;;;;;;9.50;3.72;;;17.90;99.90;;;;;;5054402;28;20049;-81
2023/08/24 05:33:22;;;;;;;11.38;3.53;;;17.70;99.90;;;;;;5036470;28;20045;-82
2023/08/24 05:35:49;;;;;;;9.48;3.92;;;17.70;99.90;;;;;;5036576;28;20429;-83
2023/08/24 05:38:16;;;;;;;7.95;3.50;;;17.60;99.90;;;;;;5065104;28;20496;-82
2023/08/24 05:40:42;;;;;;;10.05;4.00;;;17.60;99.90;;;;;;5039113;28;20119;-80
2023/08/24 05:43:09;;;;;;;10.43;3.55;;;17.60;99.90;;;;;;5038800;28;20040;-80
2023/08/24 05:45:36;;;;;;;10.50;3.80;;;17.50;99.90;;;;;;5065932;28;20044;-84
2023/08/24 05:48:04;;;;;;;11.20;4.05;;;17.50;99.90;;;;;;5079066;28;20420;-82
2023/08/24 05:50:30;;;;;;;13.65;4.40;;;17.40;99.90;;;;;;5067904;28;20049;-84
2023/08/24 05:52:57;;;;;;;11.73;3.75;;;17.40;99.90;;;;;;5073207;28;20050;-81
2023/08/24 05:55:24;;;;;;;10.20;3.55;;;17.30;99.90;;;;;;5056261;28;20068;-81
2023/08/24 05:57:50;;;;;;;9.00;3.45;;;17.40;99.90;;;;;;5060033;28;20028;-81
2023/08/24 06:00:18;;;;;;;15.88;3.83;;;17.30;99.90;;;;;;5076615;28;20041;-84
2023/08/24 06:02:44;;;;;;;9.15;3.80;;;17.30;99.90;;;;;;5061376;28;20106;-81
2023/08/24 06:05:11;;;;;;;13.18;4.60;;;17.30;99.90;;;;;;5049381;28;20052;-80
2023/08/24 06:10:24;;;;;;;11.75;4.00;;;17.20;99.90;;;;;;5078392;28;20044;-83
2023/08/24 06:12:50;;;;;;;12.20;4.22;;;17.30;99.90;;;;;;5062908;28;20115;-83
2023/08/24 06:15:19;;;;;;;11.68;4.05;;;17.30;99.90;;;;;;5052635;28;20073;-82
2023/08/24 06:17:47;;;;;;;10.05;3.85;;;17.40;99.90;;;;;;5071474;28;20048;-85
2023/08/24 06:20:15;;;;;;;12.57;3.38;;;17.30;99.90;;;;;;5040109;28;20079;-84
2023/08/24 06:22:42;;;;;;;10.93;3.42;;;17.20;99.90;;;;;;5070264;28;20048;-82
2023/08/24 06:25:08;;;;;;;11.32;4.07;;;17.30;99.90;;;;;;5058655;28;20511;-84
2023/08/24 06:27:35;;;;;;;14.20;3.92;;;17.30;99.90;;;;;;5039185;28;20483;-84
2023/08/24 06:30:03;;;;;;;11.48;3.45;;;17.40;99.90;;;;;;5057646;28;20096;-82
2023/08/24 06:32:30;;;;;;;15.68;3.72;;;17.40;99.90;;;;;;5057283;28;20037;-84
2023/08/24 06:34:57;;;;;;;12.73;3.95;;;17.50;99.90;;;;;;5050646;28;20072;-80
2023/08/24 06:39:53;;;;;;;14.32;3.80;;;17.60;99.90;;;;;;5076610;28;20051;-85
2023/08/24 06:42:20;;;;;;;15.38;4.28;;;17.50;99.90;;;;;;5074773;28;20122;-81
2023/08/24 06:44:49;;;;;;;10.32;3.38;;;17.50;99.90;;;;;;5065699;28;20115;-84
2023/08/24 06:47:17;;;;;;;10.65;3.95;;;17.50;99.90;;;;;;5061001;28;20124;-82
2023/08/24 06:49:44;;;;;;;14.73;3.90;;;17.50;99.90;;;;;;5062907;28;20471;-84
2023/08/24 06:52:10;;;;;;;12.07;3.70;;;17.50;99.90;;;;;;5082835;28;20116;-85
2023/08/24 06:54:37;;;;;;;9.98;3.75;;;17.50;99.90;;;;;;5072699;28;20490;-84
2023/08/24 06:59:34;;;;;;;11.70;4.03;;;17.40;99.90;;;;;;5075160;28;20079;-84
2023/08/24 07:02:01;;;;;;;11.82;4.15;;;17.50;99.90;;;;;;5076323;28;20064;-81
2023/08/24 07:04:27;;;;;;;12.38;3.70;;;17.50;99.90;;;;;;5079282;28;20032;-83
2023/08/24 07:06:57;;;;;;;12.65;4.28;;;17.50;99.90;;;;;;5087270;28;20410;-82
2023/08/24 07:09:24;;;;;;;11.85;4.25;;;17.60;99.90;;;;;;5091883;28;20078;-82
2023/08/24 07:11:50;;;;;;;11.23;3.90;;;17.60;99.90;;;;;;5087961;28;20123;-81
2023/08/24 07:14:17;;;;;;;8.90;3.63;;;17.60;99.90;;;;;;5085696;28;20040;-83
2023/08/24 07:16:45;;;;;;;11.05;3.95;;;17.60;99.90;;;;;;5084537;28;20048;-82
2023/08/24 07:19:11;;;;;;;9.55;3.58;;;17.70;99.90;;;;;;5086005;28;20040;-82
2023/08/24 07:21:39;;;;;;;17.02;4.50;;;17.80;99.90;;;;;;5088756;28;20120;-83
2023/08/24 07:24:06;;;;;;;14.65;4.20;;;17.80;99.90;;;;;;5098284;28;20036;-82
2023/08/24 07:26:32;;;;;;;13.65;3.42;;;17.90;99.90;;;;;;5078907;28;20098;-81
2023/08/24 07:28:59;;;;;;;10.30;3.85;;;18.00;99.90;;;;;;5095203;28;20366;-82
2023/08/24 07:31:26;;;;;;;12.43;4.03;;;18.00;99.90;;;;;;5093278;28;20102;-83
2023/08/24 07:33:53;;;;;;;13.00;3.90;;;18.10;99.90;;;;;;5079532;28;20445;-83
2023/08/24 07:36:20;;;;;;;13.57;4.05;;;18.10;99.90;;;;;;5078744;28;20478;-82
2023/08/24 07:38:48;;;;;;;11.82;4.07;;;18.10;99.90;;;;;;5075646;28;20120;-82
2023/08/24 07:41:18;;;;;;;12.45;4.30;;;18.20;99.90;;;;;;5078514;28;20036;-81
2023/08/24 07:43:44;;;;;;;11.07;4.43;;;18.30;99.90;;;;;;5096238;28;20433;-81
2023/08/24 07:46:11;;;;;;;13.95;4.97;;;18.30;99.90;;;;;;5081038;28;20052;-81
2023/08/24 07:48:38;;;;;;;10.90;4.38;;;18.30;99.90;;;;;;5096242;28;20039;-82
2023/08/24 07:51:05;;;;;;;12.30;4.20;;;18.30;99.90;;;;;;5084321;28;20053;-82
2023/08/24 07:53:32;;;;;;;11.02;4.50;;;18.30;99.90;;;;;;5089061;28;20434;-82
2023/08/24 07:55:59;;;;;;;11.05;4.88;;;18.40;99.90;;;;;;5091434;28;20101;-83
2023/08/24 08:01:11;;;;;;;10.07;4.20;;;18.50;99.90;;;;;;5092475;28;20108;-83
2023/08/24 08:03:38;;;;;;;14.77;4.78;;;18.60;99.90;;;;;;5078737;28;20087;-81
2023/08/24 08:06:07;;;;;;;13.38;5.10;;;18.60;99.90;;;;;;5087927;28;20044;-80
2023/08/24 08:08:33;;;;;;;10.57;4.10;;;18.60;99.90;;;;;;5086254;28;20055;-82
2023/08/24 08:11:00;;;;;;;10.98;4.20;;;18.60;99.90;;;;;;5087005;28;20458;-84
2023/08/24 08:13:27;;;;;;;11.55;4.35;;;18.70;99.90;;;;;;5076731;28;20367;-85
2023/08/24 08:15:56;;;;;;;13.10;5.20;;;18.80;99.90;;;;;;5071147;28;20339;-81
2023/08/24 08:18:23;;;;;;;13.70;4.53;;;18.80;99.90;;;;;;5080295;28;20044;-81
2023/08/24 08:20:50;;;;;;;14.20;4.57;;;18.90;99.90;;;;;;5065790;28;20079;-85
2023/08/24 08:23:17;;;;;;;10.95;4.75;;;18.90;99.90;;;;;;5090391;28;20036;-83
2023/08/24 08:25:43;;;;;;;10.40;4.85;;;18.90;99.90;;;;;;5092475;28;20040;-82
2023/08/24 08:28:11;;;;;;;20.83;5.43;;;19.00;99.90;;;;;;5062327;28;20048;-83
2023/08/24 08:30:38;;;;;;;18.40;4.80;;;19.10;99.90;;;;;;5073533;28;20123;-81
2023/08/24 08:33:05;;;;;;;14.63;4.65;;;19.30;99.90;;;;;;5084428;28;20462;-83
2023/08/24 08:35:32;;;;;;;14.70;5.05;;;19.30;99.90;;;;;;5080643;28;20119;-81
2023/08/24 08:37:59;;;;;;;13.32;5.30;;;19.50;99.90;;;;;;5083554;28;20108;-81
2023/08/24 08:40:29;;;;;;;11.50;4.78;;;19.50;99.90;;;;;;5088116;28;20048;-79
2023/08/24 08:42:56;;;;;;;14.27;4.97;;;19.60;99.90;;;;;;5083770;28;20032;-82
2023/08/24 08:45:22;;;;;;;9.88;5.03;;;19.70;99.90;;;;;;5092442;28;20040;-80
2023/08/24 08:47:50;;;;;;;14.43;5.32;;;19.70;99.90;;;;;;5085316;28;20036;-82
2023/08/24 08:50:17;;;;;;;15.63;5.35;;;19.70;99.90;;;;;;5073288;28;20063;-78
2023/08/24 08:52:45;;;;;;;12.23;4.82;;;19.70;99.90;;;;;;5056768;28;20049;-81
2023/08/24 08:55:12;;;;;;;14.57;5.45;;;19.90;99.90;;;;;;5057978;28;20041;-82
2023/08/24 08:57:41;;;;;;;12.70;4.93;;;20.10;99.90;;;;;;5068837;28;20136;-78
2023/08/24 09:00:09;;;;;;;17.75;4.65;;;20.30;99.90;;;;;;5055419;28;20045;-80
2023/08/24 09:02:36;;;;;;;15.93;5.47;;;20.50;99.90;;;;;;5066512;28;20037;-80
2023/08/24 09:05:04;;;;;;;18.67;5.78;;;20.70;99.90;;;;;;5065369;28;20113;-79
2023/08/24 09:07:31;;;;;;;13.65;5.63;;;20.80;99.90;;;;;;5073910;28;20040;-80
2023/08/24 09:09:58;;;;;;;14.18;5.15;;;20.80;99.90;;;;;;5026342;28;20045;-81
2023/08/24 09:12:25;;;;;;;18.77;9.70;;;20.80;99.90;;;;;;5058759;28;20076;-82
2023/08/24 09:14:52;;;;;;;33.53;18.95;;;20.60;99.90;;;;;;5042086;28;20072;-79
2023/08/24 09:17:20;;;;;;;34.58;18.92;;;20.50;99.90;;;;;;5058527;28;20068;-83
2023/08/24 09:19:46;;;;;;;36.97;22.83;;;20.30;99.90;;;;;;5047248;28;20141;-80
2023/08/24 09:22:13;;;;;;;24.80;12.65;;;20.30;99.90;;;;;;5060227;28;20372;-82
2023/08/24 09:24:40;;;;;;;16.55;7.78;;;20.30;99.90;;;;;;5056863;28;20067;-81
2023/08/24 09:27:07;;;;;;;14.27;6.65;;;20.40;99.90;;;;;;5030026;28;20052;-80
2023/08/24 09:29:34;;;;;;;11.07;5.22;;;20.30;99.90;;;;;;5061179;28;20119;-81
2023/08/24 09:32:01;;;;;;;13.77;5.57;;;20.40;99.90;;;;;;5066923;28;20128;-81
2023/08/24 09:34:30;;;;;;;16.15;5.95;;;20.30;99.90;;;;;;5043456;28;20072;-82
2023/08/24 09:36:58;;;;;;;14.18;6.15;;;20.40;99.90;;;;;;5045952;28;20038;-82
2023/08/24 09:39:25;;;;;;;15.45;5.70;;;20.30;99.90;;;;;;5060385;28;20418;-80
2023/08/24 09:41:52;;;;;;;16.95;5.65;;;20.20;99.90;;;;;;5046353;28;20052;-82
2023/08/24 09:44:18;;;;;;;12.65;5.93;;;20.20;99.90;;;;;;5062629;28;20041;-79
2023/08/24 09:46:45;;;;;;;20.10;6.70;;;20.30;99.90;;;;;;5051873;28;20045;-82
2023/08/24 09:49:12;;;;;;;17.45;6.38;;;20.50;99.90;;;;;;5061086;28;20190;-79
2023/08/24 09:51:39;;;;;;;17.50;7.75;;;20.70;99.90;;;;;;5061301;28;20072;-80
2023/08/24 09:54:06;;;;;;;17.30;7.65;;;20.90;99.90;;;;;;5067782;28;20044;-80
2023/08/24 09:56:34;;;;;;;16.10;7.47;;;21.00;99.90;;;;;;5068790;28;20459;-79
2023/08/24 09:59:00;;;;;;;13.35;6.28;;;21.20;99.90;;;;;;5059169;28;20428;-79
2023/08/24 10:01:27;;;;;;;16.00;6.63;;;21.40;99.90;;;;;;5046279;28;20500;-78
2023/08/24 10:03:55;;;;;;;17.90;6.40;;;21.40;99.90;;;;;;5064709;28;20045;-82
2023/08/24 10:06:22;;;;;;;13.48;5.75;;;21.40;99.90;;;;;;5065325;28;20047;-79
2023/08/24 10:08:48;;;;;;;12.35;5.63;;;21.50;99.90;;;;;;5058366;28;20487;-81
2023/08/24 10:11:15;;;;;;;19.25;6.38;;;21.60;99.90;;;;;;5056209;28;20076;-80
2023/08/24 10:13:42;;;;;;;16.50;5.40;;;21.70;99.90;;;;;;5068333;28;20049;-79
2023/08/24 10:16:09;;;;;;;15.50;5.32;;;21.90;99.90;;;;;;5060480;28;20075;-79
2023/08/24 10:18:36;;;;;;;16.25;5.95;;;22.20;99.90;;;;;;5053818;28;20065;-81
2023/08/24 10:21:03;;;;;;;20.02;7.78;;;22.40;99.90;;;;;;5058833;28;20037;-80
2023/08/24 10:23:30;;;;;;;15.27;6.85;;;22.40;99.90;;;;;;5056019;28;20041;-80
2023/08/24 10:25:56;;;;;;;15.82;8.35;;;22.50;99.90;;;;;;5066159;28;20387;-82
2023/08/24 10:28:25;;;;;;;21.20;8.63;;;22.40;99.90;;;;;;5059140;28;20456;-79
2023/08/24 10:30:52;;;;;;;14.88;9.05;;;22.30;99.90;;;;;;5035458;28;20098;-80
2023/08/24 10:33:19;;;;;;;18.90;6.47;;;22.30;99.90;;;;;;5075789;28;20093;-80
2023/08/24 10:35:46;;;;;;;13.45;5.93;;;22.40;99.90;;;;;;5076532;28;20059;-80
2023/08/24 10:38:13;;;;;;;15.23;7.40;;;22.70;99.90;;;;;;5066376;28;20123;-81
2023/08/24 10:40:43;;;;;;;14.88;5.97;;;22.80;99.90;;;;;;5063564;28;20068;-83
2023/08/24 10:43:10;;;;;;;25.13;6.68;;;23.10;99.90;;;;;;5066693;28;20036;-80
2023/08/24 10:45:37;;;;;;;18.60;5.85;;;23.20;99.90;;;;;;5056686;28;20079;-82
2023/08/24 10:48:05;;;;;;;16.98;6.88;;;23.40;99.90;;;;;;5068824;28;20052;-80
2023/08/24 10:50:31;;;;;;;15.43;5.93;;;23.60;99.90;;;;;;5082673;28;20485;-79
2023/08/24 10:52:59;;;;;;;16.70;6.25;;;24.10;99.90;;;;;;5076364;28;20048;-80
2023/08/24 10:55:26;;;;;;;15.38;6.25;;;24.70;99.90;;;;;;5082047;28;20043;-82
2023/08/24 10:57:53;;;;;;;16.55;7.05;;;25.10;99.90;;;;;;5076371;28;20068;-82
2023/08/24 11:00:21;;;;;;;11.60;5.28;;;25.00;99.90;;;;;;5058340;28;20128;-80
2023/08/24 11:02:48;;;;;;;13.50;7.78;;;25.30;99.90;;;;;;5091079;28;20059;-83
2023/08/24 11:05:16;;;;;;;12.35;6.03;;;25.80;99.90;;;;;;5076571;28;20051;-80
2023/08/24 11:07:44;;;;;;;14.10;5.93;;;25.80;99.90;;;;;;5082777;28;20356;-82
2023/08/24 11:10:11;;;;;;;11.15;4.65;;;25.80;99.90;;;;;;5075672;28;20068;-80
2023/08/24 11:12:38;;;;;;;11.00;4.80;;;25.60;99.90;;;;;;5077279;28;20066;-80
2023/08/24 11:15:04;;;;;;;12.77;4.80;;;25.30;99.90;;;;;;5075114;28;20048;-82
2023/08/24 11:17:32;;;;;;;11.02;4.00;;;25.00;99.90;;;;;;5077391;28;20032;-82
2023/08/24 11:19:59;;;;;;;10.75;4.70;;;25.10;99.90;;;;;;5083504;28;20136;-80
2023/08/24 11:22:28;;;;;;;13.25;5.03;;;25.50;99.90;;;;;;5085387;28;20046;-83
2023/08/24 11:24:55;;;;;;;10.30;4.55;;;25.40;99.90;;;;;;5075022;28;20124;-81
2023/08/24 11:27:22;;;;;;;16.63;5.20;;;26.00;99.90;;;;;;5090017;28;20040;-82
2023/08/24 11:29:49;;;;;;;12.60;4.65;;;26.20;99.90;;;;;;5087988;28;20051;-81
2023/08/24 11:32:16;;;;;;;12.65;4.82;;;26.10;99.90;;;;;;5082504;28;20072;-80
2023/08/24 11:34:42;;;;;;;9.48;4.40;;;26.30;99.90;;;;;;5088119;28;20119;-82
2023/08/24 11:37:09;;;;;;;9.55;3.97;;;26.70;99.90;;;;;;5093762;28;20040;-84
2023/08/24 11:39:38;;;;;;;9.30;4.10;;;27.10;99.90;;;;;;5079842;28;20036;-82
2023/08/24 11:42:04;;;;;;;10.60;3.90;;;27.30;99.90;;;;;;5095688;28;20046;-80
2023/08/24 11:44:31;;;;;;;12.05;4.00;;;27.60;99.90;;;;;;5083560;28;20128;-81
2023/08/24 11:47:00;;;;;;;11.23;3.88;;;27.90;99.90;;;;;;5086249;28;20052;-81
2023/08/24 11:49:27;;;;;;;8.43;3.60;;;27.60;99.90;;;;;;5094487;28;20102;-82
2023/08/24 11:51:53;;;;;;;14.52;3.78;;;27.40;99.90;;;;;;5089523;28;20068;-82
2023/08/24 11:54:21;;;;;;;9.65;3.67;;;27.10;99.90;;;;;;5078127;28;20116;-82
2023/08/24 11:56:50;;;;;;;9.07;3.17;;;27.00;99.90;;;;;;5090561;28;20382;-82
2023/08/24 11:59:16;;;;;;;8.43;3.40;;;26.60;99.90;;;;;;5094626;28;20366;-80
2023/08/24 12:01:43;;;;;;;10.38;3.33;;;26.40;99.90;;;;;;5095073;28;20032;-82
2023/08/24 12:04:10;;;;;;;8.50;3.15;;;26.20;99.90;;;;;;5080503;28;20044;-80
2023/08/24 12:06:37;;;;;;;11.75;3.25;;;25.80;99.90;;;;;;5080042;28;20368;-79
2023/08/24 12:09:04;;;;;;;8.07;3.60;;;25.80;99.90;;;;;;5083144;28;20036;-82
2023/08/24 12:11:31;;;;;;;10.18;3.08;;;25.60;99.90;;;;;;5089468;28;20463;-82
2023/08/24 12:13:57;;;;;;;6.90;2.90;;;25.40;99.90;;;;;;5074795;28;20115;-79
2023/08/24 12:16:24;;;;;;;11.23;3.25;;;25.40;99.90;;;;;;5087810;28;20066;-79
2023/08/24 12:18:51;;;;;;;11.43;3.05;;;25.30;99.90;;;;;;5085310;28;20036;-78
2023/08/24 12:21:19;;;;;;;11.10;3.08;;;25.30;99.90;;;;;;5075037;28;20123;-79
2023/08/24 12:23:46;;;;;;;11.25;3.20;;;25.30;99.90;;;;;;5075423;28;20103;-84
2023/08/24 12:26:12;;;;;;;8.73;2.88;;;25.20;99.90;;;;;;5086907;28;20040;-79
2023/08/24 12:28:41;;;;;;;9.38;2.70;;;25.20;99.90;;;;;;5077238;28;20132;-80
2023/08/24 12:31:08;;;;;;;9.02;3.00;;;25.20;99.90;;;;;;5087151;28;20124;-80
2023/08/24 12:33:35;;;;;;;7.82;2.45;;;25.40;99.90;;;;;;5074083;28;20136;-81
2023/08/24 12:36:02;;;;;;;10.43;3.55;;;26.00;99.90;;;;;;5094224;28;20122;-81
2023/08/24 12:38:29;;;;;;;13.43;4.10;;;26.50;99.90;;;;;;5082451;28;20044;-82
2023/08/24 12:40:55;;;;;;;10.00;3.58;;;26.40;99.90;;;;;;5093570;28;20105;-83
2023/08/24 12:43:22;;;;;;;12.05;3.63;;;26.20;99.90;;;;;;5095149;28;20078;-80
2023/08/24 12:45:49;;;;;;;8.70;3.50;;;26.00;99.90;;;;;;5091735;28;20029;-82
2023/08/24 12:48:16;;;;;;;7.93;2.72;;;25.80;99.90;;;;;;5073208;28;20076;-81
2023/08/24 12:50:42;;;;;;;9.38;3.40;;;25.70;99.90;;;;;;5058450;28;20077;-79
2023/08/24 12:53:09;;;;;;;12.07;3.13;;;25.40;99.90;;;;;;5056806;28;20045;-83
2023/08/24 12:55:36;;;;;;;9.18;3.50;;;25.30;99.90;;;;;;5060468;28;20124;-78